Time;durP1;ratioP1;P1;durP2;ratioP2;P2;SDS_P1;SDS_P2;PMS_P1;PMS_P2;Temp;Humidity;BMP_temperature;BMP_pressure;BME280_temperature;BME280_humidity;BME280_pressure;Samples;Min_cycle;Max_cycle;Signal;HPM_P1;HPM_P2
2022/05/02 00:01:28;;;;;;;;;;;10.80;99.90;;;;;;2603382;54;20843;31
2022/05/02 00:04:02;;;;;;;;;;;10.70;99.90;;;;;;2603779;54;19958;31
2022/05/02 00:06:35;;;;;;;;;;;10.50;99.90;;;;;;2720584;39;20354;31
2022/05/02 00:09:12;;;;;;;;;;;10.50;99.90;;;;;;2622396;46;19941;31
2022/05/02 00:11:46;;;;;;;;;;;10.50;99.90;;;;;;2614918;46;19935;31
2022/05/02 00:14:20;;;;;;;;;;;10.40;99.90;;;;;;2603527;54;20002;31
2022/05/02 00:16:53;;;;;;;;;;;10.40;99.90;;;;;;2603542;54;20763;31
2022/05/02 00:19:28;;;;;;;;;;;10.30;99.90;;;;;;2603725;54;20800;31
2022/05/02 00:22:02;;;;;;;;;;;10.20;99.90;;;;;;2603677;54;20780;31
2022/05/02 00:24:38;;;;;;;;;;;10.20;99.90;;;;;;2603642;54;19934;31
2022/05/02 00:27:15;;;;;;;;;;;10.10;99.90;;;;;;2616709;47;19942;31
2022/05/02 00:29:50;;;;;;;;;;;10.10;99.90;;;;;;2603657;54;20762;31
2022/05/02 00:32:23;;;;;;;;;;;10.10;99.90;;;;;;2603531;54;20688;31
2022/05/02 00:34:57;;;;;;;;;;;10.00;99.90;;;;;;2622255;47;19973;31
2022/05/02 00:37:30;;;;;;;;;;;9.90;99.90;;;;;;2603244;54;20748;31
2022/05/02 00:40:08;;;;;;;;;;;9.80;99.90;;;;;;2602678;54;19941;31
2022/05/02 00:42:44;;;;;;;;;;;9.70;99.90;;;;;;2603242;54;20757;31
2022/05/02 00:45:19;;;;;;;;;;;9.70;99.90;;;;;;2621731;47;19934;31
2022/05/02 00:47:53;;;;;;;;;;;9.70;99.90;;;;;;2603485;54;19950;31
2022/05/02 00:50:34;;;;;;;;;;;9.70;99.90;;;;;;2603526;54;20015;31
2022/05/02 00:53:09;;;;;;;;;;;9.60;99.90;;;;;;2621865;47;19935;31
2022/05/02 00:55:45;;;;;;;;;;;9.60;99.90;;;;;;2603996;54;19942;31
2022/05/02 00:58:20;;;;;;;;;;;9.60;99.90;;;;;;2604511;54;20752;31
2022/05/02 01:00:54;;;;;;;;;;;9.40;99.90;;;;;;2702475;39;20430;31
2022/05/02 01:03:32;;;;;;;;;;;9.40;99.90;;;;;;2604372;54;20769;31
2022/05/02 01:08:55;;;;;;;;;;;9.80;99.90;;;;;;2702597;39;20373;31
2022/05/02 01:11:33;;;;;;;;;;;9.30;99.90;;;;;;2619280;46;19942;31
2022/05/02 01:14:10;;;;;;;;;;;9.20;99.90;;;;;;2603891;54;19939;31
2022/05/02 01:16:44;;;;;;;;;;;9.20;99.90;;;;;;2604050;54;19990;31
2022/05/02 01:19:17;;;;;;;;;;;9.00;99.90;;;;;;2622383;46;19934;31
2022/05/02 01:21:55;;;;;;;;;;;9.00;99.90;;;;;;2604386;54;19942;31
2022/05/02 01:24:38;;;;;;;;;;;9.30;99.90;;;;;;2603994;54;19938;31
2022/05/02 01:27:14;;;;;;;;;;;8.80;99.90;;;;;;2604095;54;19985;31
2022/05/02 01:29:48;;;;;;;;;;;8.70;99.90;;;;;;2721224;39;20461;31
2022/05/02 01:32:23;;;;;;;;;;;9.10;99.90;;;;;;2792872;31;20437;31
2022/05/02 01:34:57;;;;;;;;;;;8.70;99.90;;;;;;2604067;54;19935;31
2022/05/02 01:37:35;;;;;;;;;;;8.60;99.90;;;;;;2603885;54;19957;31
2022/05/02 01:40:10;;;;;;;;;;;8.60;99.90;;;;;;2613314;46;19934;31
2022/05/02 01:42:45;;;;;;;;;;;8.50;99.90;;;;;;2604087;54;19946;31
2022/05/02 01:45:19;;;;;;;;;;;8.40;99.90;;;;;;2720991;39;20401;31
2022/05/02 01:47:54;;;;;;;;;;;8.40;99.90;;;;;;2603849;54;20853;31
2022/05/02 01:50:29;;;;;;;;;;;8.40;99.90;;;;;;2622463;46;20440;31
2022/05/02 01:53:06;;;;;;;;;;;8.30;99.90;;;;;;2604366;54;19950;31
2022/05/02 01:55:41;;;;;;;;;;;8.30;99.90;;;;;;2622177;46;19959;31
2022/05/02 01:58:17;;;;;;;;;;;8.30;99.90;;;;;;2774019;31;20433;31
2022/05/02 02:00:55;;;;;;;;;;;8.20;99.90;;;;;;2622760;46;21192;31
2022/05/02 02:03:30;;;;;;;;;;;8.20;99.90;;;;;;2773932;31;20453;31
2022/05/02 02:06:03;;;;;;;;;;;8.20;99.90;;;;;;2622293;46;20753;31
2022/05/02 02:08:39;;;;;;;;;;;8.20;99.90;;;;;;2604115;54;19961;31
2022/05/02 02:11:14;;;;;;;;;;;8.20;99.90;;;;;;2603996;54;21493;31
2022/05/02 02:13:50;;;;;;;;;;;8.20;99.90;;;;;;2604068;54;19942;31
2022/05/02 02:16:25;;;;;;;;;;;8.10;99.90;;;;;;2603750;54;19986;31
2022/05/02 02:19:02;;;;;;;;;;;8.10;99.90;;;;;;2702541;39;20433;31
2022/05/02 02:21:37;;;;;;;;;;;8.00;99.90;;;;;;2603909;54;19941;31
2022/05/02 02:24:13;;;;;;;;;;;8.00;99.90;;;;;;2603951;54;19930;31
2022/05/02 02:26:47;;;;;;;;;;;7.90;99.90;;;;;;2603634;54;20790;31
2022/05/02 02:29:21;;;;;;;;;;;7.90;99.90;;;;;;2702199;39;21210;31
2022/05/02 02:31:55;;;;;;;;;;;7.90;99.90;;;;;;2603983;54;20037;31
2022/05/02 02:34:28;;;;;;;;;;;8.00;99.90;;;;;;2603820;54;19941;31
2022/05/02 02:37:03;;;;;;;;;;;7.80;99.90;;;;;;2622426;46;19942;31
2022/05/02 02:39:40;;;;;;;;;;;7.80;99.90;;;;;;2603875;54;19946;31
2022/05/02 02:42:15;;;;;;;;;;;7.70;99.90;;;;;;2702480;39;20484;31
2022/05/02 02:44:47;;;;;;;;;;;7.70;99.90;;;;;;2604007;54;19935;31
2022/05/02 02:47:23;;;;;;;;;;;7.70;99.90;;;;;;2702207;39;20429;31
2022/05/02 02:49:57;;;;;;;;;;;7.60;99.90;;;;;;2721186;39;20412;31
2022/05/02 02:52:31;;;;;;;;;;;7.60;99.90;;;;;;2603718;54;19941;31
2022/05/02 02:55:10;;;;;;;;;;;7.50;99.90;;;;;;2603786;54;19935;31
2022/05/02 02:57:44;;;;;;;;;;;7.80;99.90;;;;;;2622358;46;19943;31
2022/05/02 03:00:20;;;;;;;;;;;7.50;99.90;;;;;;2603868;54;20764;31
2022/05/02 03:02:56;;;;;;;;;;;7.50;99.90;;;;;;2622356;46;19942;31
2022/05/02 03:08:17;;;;;;;;;;;7.50;99.90;;;;;;2603663;54;19940;31
2022/05/02 03:10:54;;;;;;;;;;;7.40;99.90;;;;;;2603958;54;20719;31
2022/05/02 03:13:29;;;;;;;;;;;7.40;99.90;;;;;;2603974;54;19938;31
2022/05/02 03:16:03;;;;;;;;;;;7.30;99.90;;;;;;2603989;54;19942;31
2022/05/02 03:18:37;;;;;;;;;;;7.30;99.90;;;;;;2603493;54;20723;31
2022/05/02 03:21:12;;;;;;;;;;;7.20;99.90;;;;;;2603764;54;19960;31
2022/05/02 03:23:45;;;;;;;;;;;7.20;99.90;;;;;;2603974;54;20014;31
2022/05/02 03:26:23;;;;;;;;;;;7.20;99.90;;;;;;2602891;54;20703;31
2022/05/02 03:28:59;;;;;;;;;;;7.20;99.90;;;;;;2622461;46;19934;31
2022/05/02 03:31:31;;;;;;;;;;;7.20;99.90;;;;;;2603622;54;19942;31
2022/05/02 03:34:06;;;;;;;;;;;7.20;99.90;;;;;;2621847;46;21432;31
2022/05/02 03:36:39;;;;;;;;;;;7.20;99.90;;;;;;2622420;46;20770;31
2022/05/02 03:39:16;;;;;;;;;;;7.10;99.90;;;;;;2701999;39;21221;31
2022/05/02 03:41:52;;;;;;;;;;;7.10;99.90;;;;;;2720819;39;20424;31
2022/05/02 03:44:27;;;;;;;;;;;7.10;99.90;;;;;;2603591;54;19935;31
2022/05/02 03:47:00;;;;;;;;;;;7.10;99.90;;;;;;2603596;54;19942;31
2022/05/02 03:49:35;;;;;;;;;;;7.10;99.90;;;;;;2621999;46;19935;31
2022/05/02 03:52:10;;;;;;;;;;;7.10;99.90;;;;;;2622213;46;19941;31
2022/05/02 03:54:43;;;;;;;;;;;7.10;99.90;;;;;;2603569;54;19941;31
2022/05/02 03:57:21;;;;;;;;;;;7.00;99.90;;;;;;2603657;54;19957;31
2022/05/02 03:59:58;;;;;;;;;;;7.00;99.90;;;;;;2702262;39;21323;31
2022/05/02 04:02:32;;;;;;;;;;;7.10;99.90;;;;;;2721069;39;21065;31
2022/05/02 04:05:09;;;;;;;;;;;7.20;99.90;;;;;;2619075;46;19943;31
2022/05/02 04:07:44;;;;;;;;;;;7.30;99.90;;;;;;2603331;54;20862;31
2022/05/02 04:10:20;;;;;;;;;;;7.30;99.90;;;;;;2621834;46;19942;31
2022/05/02 04:13:09;;;;;;;;;;;7.30;99.90;;;;;;2621742;46;20755;31
2022/05/02 04:15:47;;;;;;;;;;;7.30;99.90;;;;;;2603278;54;19943;31
2022/05/02 04:18:22;;;;;;;;;;;7.30;99.90;;;;;;2603688;54;19946;31
2022/05/02 04:20:57;;;;;;;;;;;7.40;99.90;;;;;;2603578;54;19935;31
2022/05/02 04:23:34;;;;;;;;;;;7.50;99.90;;;;;;2603449;54;19935;31
2022/05/02 04:26:08;;;;;;;;;;;7.70;99.90;;;;;;2603578;54;19935;31
2022/05/02 04:28:43;;;;;;;;;;;7.90;99.90;;;;;;2621920;47;19935;31
2022/05/02 04:31:20;;;;;;;;;;;8.10;99.90;;;;;;2622932;46;19950;31
2022/05/02 04:33:55;;;;;;;;;;;8.50;99.90;;;;;;2604003;54;19993;31
2022/05/02 04:36:30;;;;;;;;;;;8.50;99.90;;;;;;2622638;46;19959;31
2022/05/02 04:39:05;;;;;;;;;;;8.80;99.90;;;;;;2604219;54;19934;31
2022/05/02 04:41:40;;;;;;;;;;;9.00;99.90;;;;;;2604066;54;19939;31
2022/05/02 04:44:15;;;;;;;;;;;9.30;99.90;;;;;;2703058;39;20967;31
2022/05/02 04:46:52;;;;;;;;;;;9.50;99.90;;;;;;2604333;54;19941;31
2022/05/02 04:49:26;;;;;;;;;;;9.70;99.90;;;;;;2604107;54;19990;31
2022/05/02 04:52:02;;;;;;;;;;;10.00;99.90;;;;;;2622608;46;20036;31
2022/05/02 04:54:36;;;;;;;;;;;10.30;99.90;;;;;;2604324;54;20736;31
2022/05/02 04:57:10;;;;;;;;;;;10.60;99.90;;;;;;2604044;54;19989;31
2022/05/02 04:59:45;;;;;;;;;;;10.70;99.90;;;;;;2604180;54;20111;31
2022/05/02 05:02:23;;;;;;;;;;;10.80;99.90;;;;;;2721415;39;21452;31
2022/05/02 05:04:58;;;;;;;;;;;10.90;99.90;;;;;;2604216;54;20751;31
2022/05/02 05:07:33;;;;;;;;;;;10.90;99.90;;;;;;2604109;54;19942;31
2022/05/02 05:10:09;;;;;;;;;;;10.90;99.90;;;;;;2604260;54;19942;31
2022/05/02 05:13:03;;;;;;;;;;;10.90;99.90;;;;;;2622614;46;19935;31
2022/05/02 05:18:54;;;;;;;;;;;11.20;99.90;;;;;;2622542;46;20018;31
2022/05/02 05:21:32;;;;;;;;;;;11.50;99.90;;;;;;2604350;54;19935;31
2022/05/02 05:24:09;;;;;;;;;;;11.50;99.90;;;;;;2702854;39;20938;31
2022/05/02 05:26:45;;;;;;;;;;;11.50;99.90;;;;;;2622735;46;19934;31
2022/05/02 05:29:22;;;;;;;;;;;11.80;99.90;;;;;;2604028;54;20810;31
2022/05/02 05:32:00;;;;;;;;;;;12.00;99.90;;;;;;2604262;54;19987;31
2022/05/02 05:34:41;;;;;;;;;;;12.30;99.90;;;;;;2622576;46;20013;31
2022/05/02 05:37:30;;;;;;;;;;;12.60;99.90;;;;;;2603867;54;20795;31
2022/05/02 05:40:05;;;;;;;;;;;13.00;99.90;;;;;;2603697;54;20779;31
2022/05/02 05:42:45;;;;;;;;;;;13.20;99.90;;;;;;2613735;46;20009;31
2022/05/02 05:45:22;;;;;;;;;;;13.20;99.90;;;;;;2720920;39;20488;31
2022/05/02 05:47:59;;;;;;;;;;;13.20;99.90;;;;;;2603847;54;19942;31
2022/05/02 05:50:39;;;;;;;;;;;13.40;99.90;;;;;;2603833;54;20000;31
2022/05/02 05:53:16;;;;;;;;;;;13.30;99.90;;;;;;2604197;54;19935;31
2022/05/02 05:55:59;;;;;;;;;;;13.50;99.90;;;;;;2622732;46;19949;31
2022/05/02 05:58:36;;;;;;;;;;;13.70;99.90;;;;;;2604202;54;19935;31
2022/05/02 06:01:15;;;;;;;;;;;13.80;99.90;;;;;;2604191;54;19934;31
2022/05/02 06:03:54;;;;;;;;;;;13.90;99.90;;;;;;2604179;54;20728;31
2022/05/02 06:06:32;;;;;;;;;;;13.80;99.90;;;;;;2604076;54;20725;31
2022/05/02 06:09:06;;;;;;;;;;;14.00;99.90;;;;;;2622641;46;20746;31
2022/05/02 06:11:42;;;;;;;;;;;14.10;99.90;;;;;;2604294;54;19993;31
2022/05/02 06:14:21;;;;;;;;;;;14.50;99.90;;;;;;2604158;54;19941;31
2022/05/02 06:19:43;;;;;;;;;;;15.00;99.90;;;;;;2603796;54;20756;31
2022/05/02 06:22:22;;;;;;;;;;;15.10;99.90;;;;;;2603273;54;20022;31
2022/05/02 06:25:01;;;;;;;;;;;15.20;99.90;;;;;;2603930;54;20477;31
2022/05/02 06:27:36;;;;;;;;;;;15.30;99.90;;;;;;2603931;54;20485;31
2022/05/02 06:30:11;;;;;;;;;;;15.30;99.90;;;;;;2622649;46;19935;31
2022/05/02 06:32:45;;;;;;;;;;;15.30;99.90;;;;;;2622494;46;19934;31
2022/05/02 06:35:20;;;;;;;;;;;15.60;99.90;;;;;;2622128;46;20757;31
2022/05/02 06:37:57;;;;;;;;;;;15.80;99.90;;;;;;2603998;54;20793;31
2022/05/02 06:40:30;;;;;;;;;;;16.10;99.90;;;;;;2603704;54;19934;31
2022/05/02 06:43:07;;;;;;;;;;;16.50;99.90;;;;;;2604136;54;19935;31
2022/05/02 06:48:51;;;;;;;;;;;17.10;99.90;;;;;;2604185;54;19941;31
2022/05/02 06:51:24;;;;;;;;;;;17.40;99.90;;;;;;2603711;54;20817;31
2022/05/02 06:54:11;;;;;;;;;;;17.70;99.90;;;;;;2604006;54;19962;31
2022/05/02 06:56:49;;;;;;;;;;;17.90;99.90;;;;;;2603754;54;19947;31
2022/05/02 06:59:34;;;;;;;;;;;18.20;99.90;;;;;;2603972;54;20044;31
2022/05/02 07:02:25;;;;;;;;;;;18.50;99.90;;;;;;2774213;31;21025;31
2022/05/02 07:04:59;;;;;;;;;;;18.80;99.90;;;;;;2603600;54;19957;31
2022/05/02 07:07:42;;;;;;;;;;;19.00;99.90;;;;;;2622274;46;19935;31
2022/05/02 07:10:15;;;;;;;;;;;19.20;99.90;;;;;;2603543;54;19947;31
2022/05/02 07:12:56;;;;;;;;;;;19.50;99.90;;;;;;2604081;54;19962;31
2022/05/02 07:15:32;;;;;;;;;;;19.70;99.90;;;;;;2604098;54;19989;31
2022/05/02 07:18:08;;;;;;;;;;;20.10;99.90;;;;;;2603580;54;19935;31
2022/05/02 07:20:45;;;;;;;;;;;20.20;99.90;;;;;;2603723;54;19935;31
2022/05/02 07:23:37;;;;;;;;;;;20.10;99.90;;;;;;2603650;54;19935;31
2022/05/02 07:26:13;;;;;;;;;;;19.90;99.90;;;;;;2603915;54;19990;31
2022/05/02 07:28:50;;;;;;;;;;;19.90;99.90;;;;;;2603926;54;20723;31
2022/05/02 07:31:25;;;;;;;;;;;19.90;99.90;;;;;;2603557;54;19934;31
2022/05/02 07:33:59;;;;;;;;;;;20.00;99.90;;;;;;2622087;46;19948;31
2022/05/02 07:36:35;;;;;;;;;;;20.20;99.90;;;;;;2622011;46;19941;31
2022/05/02 07:39:08;;;;;;;;;;;20.40;99.90;;;;;;2603497;54;19935;31
2022/05/02 07:41:42;;;;;;;;;;;20.30;99.90;;;;;;2620368;46;20282;31
2022/05/02 07:44:23;;;;;;;;;;;20.40;99.90;;;;;;2603123;39;20276;31
2022/05/02 07:46:58;;;;;;;;;;;20.40;99.90;;;;;;2603114;54;19989;31
2022/05/02 07:49:33;;;;;;;;;;;20.20;98.70;;;;;;2612866;39;20317;31
2022/05/02 07:52:06;;;;;;;;;;;19.90;98.60;;;;;;2602444;54;19935;31
2022/05/02 07:54:42;;;;;;;;;;;19.90;99.10;;;;;;2602420;54;20771;31
2022/05/02 07:57:19;;;;;;;;;;;19.90;99.10;;;;;;2638599;31;20247;31
2022/05/02 07:59:56;;;;;;;;;;;20.00;99.80;;;;;;2602859;54;19950;31
2022/05/02 08:02:31;;;;;;;;;;;20.00;99.10;;;;;;2601933;54;20803;31
2022/05/02 08:05:06;;;;;;;;;;;20.00;99.60;;;;;;2620764;39;20251;31
2022/05/02 08:07:40;;;;;;;;;;;20.00;99.40;;;;;;2602757;54;19950;31
2022/05/02 08:10:34;;;;;;;;;;;20.00;98.20;;;;;;2621329;46;20450;31
2022/05/02 08:13:12;;;;;;;;;;;20.00;98.60;;;;;;2621997;46;19961;31
2022/05/02 08:15:50;;;;;;;;;;;20.00;99.80;;;;;;2603674;54;19941;31
2022/05/02 08:18:27;;;;;;;;;;;19.90;99.90;;;;;;2621542;47;19957;31
2022/05/02 08:21:03;;;;;;;;;;;20.00;99.90;;;;;;2603391;54;19942;31
2022/05/02 08:29:20;;;;;;;;;;;20.10;99.30;;;;;;2622207;47;19941;31
2022/05/02 08:31:59;;;;;;;;;;;20.20;99.70;;;;;;2603499;54;19939;31
2022/05/02 08:34:36;;;;;;;;;;;20.30;98.60;;;;;;2603057;54;19941;31
2022/05/02 08:37:16;;;;;;;;;;;20.40;99.50;;;;;;2621526;47;20872;31
2022/05/02 08:39:55;;;;;;;;;;;20.50;98.90;;;;;;2621713;47;20785;31
2022/05/02 08:42:44;;;;;;;;;;;20.50;99.30;;;;;;2603185;54;20834;31
2022/05/02 08:45:41;;;;;;;;;;;20.60;98.70;;;;;;2603160;54;19938;31
2022/05/02 08:48:28;;;;;;;;;;;20.80;99.40;;;;;;2602424;54;20755;31
2022/05/02 08:51:26;;;;;;;;;;;20.90;97.40;;;;;;2603228;54;19935;31
2022/05/02 08:54:18;;;;;;;;;;;20.90;97.40;;;;;;2603299;54;20023;31
2022/05/02 08:56:54;;;;;;;;;;;21.00;98.00;;;;;;2603730;54;19990;31
2022/05/02 08:59:43;;;;;;;;;;;21.30;98.40;;;;;;2603616;54;19935;31
2022/05/02 09:02:34;;;;;;;;;;;21.40;97.20;;;;;;2605255;47;19935;31
2022/05/02 09:05:12;;;;;;;;;;;21.60;96.80;;;;;;2603605;54;19935;31
2022/05/02 09:08:16;;;;;;;;;;;21.70;96.20;;;;;;2621832;47;19934;31
2022/05/02 09:11:04;;;;;;;;;;;21.80;97.00;;;;;;2621950;47;19989;31
2022/05/02 09:13:51;;;;;;;;;;;22.10;94.80;;;;;;2603249;54;19934;31
2022/05/02 09:16:35;;;;;;;;;;;22.20;94.20;;;;;;2603806;54;19941;31
2022/05/02 09:19:10;;;;;;;;;;;22.30;95.20;;;;;;2604293;54;19961;31
2022/05/02 09:21:51;;;;;;;;;;;22.40;93.00;;;;;;2774282;31;21088;31
2022/05/02 09:24:36;;;;;;;;;;;22.40;93.40;;;;;;2604282;54;19985;31
2022/05/02 09:27:17;;;;;;;;;;;22.50;93.40;;;;;;2604080;54;20853;31
2022/05/02 09:30:05;;;;;;;;;;;22.70;93.10;;;;;;2622667;46;19935;31
2022/05/02 09:32:50;;;;;;;;;;;23.00;92.50;;;;;;2622309;46;20712;31
2022/05/02 09:35:36;;;;;;;;;;;23.20;90.90;;;;;;2604020;54;20781;31
2022/05/02 09:40:42;;;;;;;;;;;23.70;91.90;;;;;;2603850;54;19990;31
2022/05/02 09:43:21;;;;;;;;;;;23.90;90.70;;;;;;2622769;46;19942;31
2022/05/02 09:51:56;;;;;;;;;;;24.30;85.50;;;;;;2622394;46;19935;31
2022/05/02 09:57:23;;;;;;;;;;;24.50;85.30;;;;;;2604343;54;19935;31
2022/05/02 10:01:06;;;;;;;;;;;24.50;82.80;;;;;;2603801;54;19990;31
2022/05/02 10:02:52;;;;;;;;;;;24.60;77.50;;;;;;2603852;54;19935;31
2022/05/02 10:05:33;;;;;;;;;;;24.60;80.10;;;;;;2604082;54;20729;31
2022/05/02 10:08:08;;;;;;;;;;;24.70;82.00;;;;;;2603816;54;19934;31
2022/05/02 10:10:45;;;;;;;;;;;24.60;81.80;;;;;;2603953;54;19939;31
2022/05/02 10:13:22;;;;;;;;;;;24.70;79.40;;;;;;2622242;46;20754;31
2022/05/02 10:15:59;;;;;;;;;;;24.70;76.90;;;;;;2702556;39;20762;31
2022/05/02 10:18:47;;;;;;;;;;;24.60;79.60;;;;;;2603829;54;19978;31
2022/05/02 10:21:30;;;;;;;;;;;24.60;78.70;;;;;;2622035;46;19990;31
2022/05/02 10:24:06;;;;;;;;;;;24.50;77.20;;;;;;2622705;46;19935;31
2022/05/02 10:26:44;;;;;;;;;;;24.30;79.30;;;;;;2603812;54;19934;31
2022/05/02 10:31:54;;;;;;;;;;;24.40;76.50;;;;;;2620648;46;19942;31
2022/05/02 10:34:28;;;;;;;;;;;24.50;78.90;;;;;;2622599;46;19942;31
2022/05/02 10:37:07;;;;;;;;;;;24.50;78.10;;;;;;2618805;46;19958;31
2022/05/02 10:39:47;;;;;;;;;;;24.60;77.10;;;;;;2622257;46;19993;31
2022/05/02 10:42:24;;;;;;;;;;;24.60;75.50;;;;;;2720870;39;20519;31
2022/05/02 10:45:02;;;;;;;;;;;24.70;79.10;;;;;;2603938;54;19935;31
2022/05/02 10:47:42;;;;;;;;;;;24.80;77.10;;;;;;2603475;54;19938;31
2022/05/02 10:50:18;;;;;;;;;;;24.60;76.30;;;;;;2621962;46;20005;31
2022/05/02 10:53:03;;;;;;;;;;;24.60;78.10;;;;;;2603794;54;19931;31
2022/05/02 10:55:40;;;;;;;;;;;24.60;77.40;;;;;;2603896;54;19961;31
2022/05/02 10:58:14;;;;;;;;;;;24.70;75.40;;;;;;2603974;54;20753;31
2022/05/02 11:00:54;;;;;;;;;;;24.60;73.30;;;;;;2603017;54;19949;31
2022/05/02 11:03:31;;;;;;;;;;;24.60;74.90;;;;;;2603610;54;19942;31
2022/05/02 11:06:09;;;;;;;;;;;24.60;72.20;;;;;;2622265;46;19942;31
2022/05/02 11:08:47;;;;;;;;;;;24.50;72.50;;;;;;2603812;54;20037;31
2022/05/02 11:11:24;;;;;;;;;;;24.50;70.10;;;;;;2604106;54;19990;31
2022/05/02 11:13:59;;;;;;;;;;;24.50;70.90;;;;;;2603751;54;19941;31
2022/05/02 11:16:35;;;;;;;;;;;24.50;71.90;;;;;;2622486;46;19935;31
2022/05/02 11:22:02;;;;;;;;;;;24.60;70.80;;;;;;2603327;54;19934;31
2022/05/02 11:24:40;;;;;;;;;;;24.60;71.20;;;;;;2603776;54;21297;31
2022/05/02 11:27:27;;;;;;;;;;;24.50;68.00;;;;;;2603141;46;20762;31
2022/05/02 11:30:05;;;;;;;;;;;24.40;68.90;;;;;;2602913;54;20001;31
2022/05/02 11:32:42;;;;;;;;;;;24.40;71.30;;;;;;2603098;54;19942;31
2022/05/02 11:35:16;;;;;;;;;;;24.30;70.40;;;;;;2622238;46;20759;31
2022/05/02 11:38:06;;;;;;;;;;;24.30;70.70;;;;;;2621733;46;19934;31
2022/05/02 11:40:42;;;;;;;;;;;24.30;68.70;;;;;;2603737;54;20718;31
2022/05/02 11:43:26;;;;;;;;;;;24.20;70.90;;;;;;2603489;54;19942;31
2022/05/02 11:46:05;;;;;;;;;;;24.20;68.70;;;;;;2602889;54;19935;31
2022/05/02 11:48:54;;;;;;;;;;;24.10;68.70;;;;;;2602337;54;19943;31
2022/05/02 11:54:16;;;;;;;;;;;24.10;71.90;;;;;;2602650;54;19935;31
2022/05/02 11:56:51;;;;;;;;;;;24.20;70.90;;;;;;2621508;46;19943;31
2022/05/02 11:59:39;;;;;;;;;;;24.20;72.60;;;;;;2603186;54;19986;31
2022/05/02 12:02:15;;;;;;;;;;;24.10;69.40;;;;;;2621816;46;20129;31
2022/05/02 12:07:29;;;;;;;;;;;24.00;67.60;;;;;;2621992;46;19935;31
2022/05/02 12:10:06;;;;;;;;;;;24.00;69.30;;;;;;2622061;46;19947;31
2022/05/02 12:12:41;;;;;;;;;;;24.00;72.60;;;;;;2622165;46;19934;31
2022/05/02 12:15:20;;;;;;;;;;;24.00;71.40;;;;;;2603302;54;19966;31
2022/05/02 12:20:53;;;;;;;;;;;23.90;70.10;;;;;;2621950;47;19942;31
2022/05/02 12:23:33;;;;;;;;;;;23.90;70.20;;;;;;2603071;54;20819;31
2022/05/02 12:26:15;;;;;;;;;;;23.80;69.50;;;;;;2603419;54;20786;31
2022/05/02 12:28:52;;;;;;;;;;;24.00;71.30;;;;;;2603597;54;19985;31
2022/05/02 12:31:29;;;;;;;;;;;24.00;71.50;;;;;;2621798;47;20076;31
2022/05/02 12:34:09;;;;;;;;;;;24.00;72.30;;;;;;2603494;54;20675;31
2022/05/02 12:36:57;;;;;;;;;;;24.00;71.80;;;;;;2603797;54;19947;31
2022/05/02 12:39:32;;;;;;;;;;;24.10;72.50;;;;;;2622065;46;19935;31
2022/05/02 12:42:15;;;;;;;;;;;24.00;71.70;;;;;;2602915;54;19943;31
2022/05/02 12:44:52;;;;;;;;;;;23.90;70.80;;;;;;2603174;54;20017;31
2022/05/02 12:50:17;;;;;;;;;;;23.80;70.60;;;;;;2603606;54;19960;31
2022/05/02 12:52:55;;;;;;;;;;;23.90;70.80;;;;;;2604229;54;19941;31
2022/05/02 12:55:32;;;;;;;;;;;23.80;71.00;;;;;;2604381;54;19934;31
2022/05/02 13:00:59;;;;;;;;;;;23.80;70.10;;;;;;2623124;46;19942;31
2022/05/02 13:03:34;;;;;;;;;;;23.70;69.40;;;;;;2604178;54;19941;31
2022/05/02 13:06:10;;;;;;;;;;;23.50;69.30;;;;;;2604303;54;19941;31
2022/05/02 13:08:50;;;;;;;;;;;23.40;69.70;;;;;;2604087;54;20821;31
2022/05/02 13:11:25;;;;;;;;;;;23.20;69.80;;;;;;2604100;54;19934;31
2022/05/02 13:14:03;;;;;;;;;;;23.20;70.10;;;;;;2604111;54;19934;31
2022/05/02 13:16:40;;;;;;;;;;;23.10;68.60;;;;;;2702795;39;20951;31
2022/05/02 13:19:13;;;;;;;;;;;23.00;68.80;;;;;;2603820;54;20839;31
2022/05/02 13:21:58;;;;;;;;;;;23.00;70.20;;;;;;2622880;46;19942;31
2022/05/02 13:24:33;;;;;;;;;;;22.90;71.40;;;;;;2604233;54;19966;31
2022/05/02 13:27:10;;;;;;;;;;;22.80;69.70;;;;;;2604001;54;19934;31
2022/05/02 13:29:57;;;;;;;;;;;22.80;70.30;;;;;;2604300;54;19942;31
2022/05/02 13:32:34;;;;;;;;;;;22.70;71.10;;;;;;2603973;54;19934;31
2022/05/02 13:35:10;;;;;;;;;;;22.70;71.40;;;;;;2622850;46;19935;31
2022/05/02 13:37:52;;;;;;;;;;;22.60;74.30;;;;;;2702780;39;20356;31
2022/05/02 13:40:45;;;;;;;;;;;22.60;71.10;;;;;;2604445;54;19990;31
2022/05/02 13:43:33;;;;;;;;;;;22.60;71.30;;;;;;2604047;54;19938;31
2022/05/02 13:46:16;;;;;;;;;;;22.60;72.90;;;;;;2604088;54;19934;31
2022/05/02 13:49:12;;;;;;;;;;;22.60;73.80;;;;;;2603925;54;20013;31
2022/05/02 13:52:09;;;;;;;;;;;22.50;72.50;;;;;;2622478;46;19934;31
2022/05/02 13:54:43;;;;;;;;;;;22.60;71.70;;;;;;2604236;54;19935;31
2022/05/02 13:57:18;;;;;;;;;;;22.60;71.20;;;;;;2604103;54;19942;31
2022/05/02 14:00:48;;;;;;;;;;;22.60;72.80;;;;;;2604058;54;19941;31
2022/05/02 14:03:10;;;;;;;;;;;22.70;71.20;;;;;;2622731;46;20748;31
2022/05/02 14:05:58;;;;;;;;;;;22.70;72.10;;;;;;2603996;54;20760;31
2022/05/02 14:08:42;;;;;;;;;;;22.70;72.80;;;;;;2604125;54;19977;31
2022/05/02 14:11:16;;;;;;;;;;;22.70;73.40;;;;;;2622615;46;20801;31
2022/05/02 14:14:06;;;;;;;;;;;22.70;72.90;;;;;;2603884;54;19935;31
2022/05/02 14:16:38;;;;;;;;;;;22.70;71.30;;;;;;2622654;46;20761;31
2022/05/02 14:19:18;;;;;;;;;;;22.70;70.90;;;;;;2604111;54;19935;31
2022/05/02 14:21:52;;;;;;;;;;;22.70;70.40;;;;;;2603676;54;20781;31
2022/05/02 14:24:26;;;;;;;;;;;22.70;70.80;;;;;;2603831;54;19942;31
2022/05/02 14:27:01;;;;;;;;;;;22.60;71.60;;;;;;2604162;54;19934;31
2022/05/02 14:29:35;;;;;;;;;;;22.60;71.90;;;;;;2603967;54;20062;31
2022/05/02 14:32:12;;;;;;;;;;;22.50;72.50;;;;;;2622559;46;19935;31
2022/05/02 14:34:56;;;;;;;;;;;22.40;72.70;;;;;;2603979;54;19985;31
2022/05/02 14:37:32;;;;;;;;;;;22.30;72.40;;;;;;2604102;54;20025;31
2022/05/02 14:40:07;;;;;;;;;;;22.30;72.50;;;;;;2622359;46;19934;31
2022/05/02 14:42:40;;;;;;;;;;;22.10;72.90;;;;;;2622528;46;19942;31
2022/05/02 14:45:14;;;;;;;;;;;22.00;73.20;;;;;;2702234;39;21615;31
2022/05/02 14:47:51;;;;;;;;;;;22.00;73.10;;;;;;2604066;54;19934;31
2022/05/02 14:50:26;;;;;;;;;;;21.90;72.70;;;;;;2622345;46;19941;31
2022/05/02 14:53:03;;;;;;;;;;;21.90;73.90;;;;;;2603831;54;19939;31
2022/05/02 14:55:40;;;;;;;;;;;21.90;74.20;;;;;;2622713;46;19935;31
2022/05/02 14:58:14;;;;;;;;;;;21.80;74.30;;;;;;2622332;46;20006;31
2022/05/02 15:00:50;;;;;;;;;;;21.80;74.30;;;;;;2603179;54;19984;31
2022/05/02 15:03:27;;;;;;;;;;;21.70;74.30;;;;;;2603320;54;19949;31
2022/05/02 15:06:07;;;;;;;;;;;21.60;75.20;;;;;;2603647;54;19969;31
2022/05/02 15:08:45;;;;;;;;;;;21.60;75.80;;;;;;2603986;54;19935;31
2022/05/02 15:11:28;;;;;;;;;;;21.50;75.10;;;;;;2603933;54;19935;31
2022/05/02 15:14:17;;;;;;;;;;;21.50;74.70;;;;;;2603520;54;19934;31
2022/05/02 15:16:54;;;;;;;;;;;21.50;76.00;;;;;;2622454;46;20734;31
2022/05/02 15:19:41;;;;;;;;;;;21.50;77.70;;;;;;2622443;46;19935;31
2022/05/02 15:22:19;;;;;;;;;;;21.60;75.90;;;;;;2603524;54;19996;31
2022/05/02 15:25:10;;;;;;;;;;;21.60;74.70;;;;;;2604029;54;19973;31
2022/05/02 15:39:18;;;;;;;;;;;21.80;73.10;;;;;;2622413;46;19942;31
2022/05/02 15:42:02;;;;;;;;;;;21.80;74.00;;;;;;2602936;54;19965;31
2022/05/02 15:44:43;;;;;;;;;;;21.70;74.80;;;;;;2622022;46;19980;31
2022/05/02 15:47:19;;;;;;;;;;;21.70;74.50;;;;;;2622387;46;19934;31
2022/05/02 15:49:56;;;;;;;;;;;21.60;74.10;;;;;;2603821;54;19942;31
2022/05/02 15:52:32;;;;;;;;;;;21.60;74.10;;;;;;2603623;54;19935;31
2022/05/02 15:55:13;;;;;;;;;;;21.50;74.70;;;;;;2603122;54;20836;31
2022/05/02 15:57:53;;;;;;;;;;;21.40;75.50;;;;;;2622120;46;19935;31
2022/05/02 16:00:32;;;;;;;;;;;21.30;75.20;;;;;;2603846;54;19934;31
2022/05/02 16:03:16;;;;;;;;;;;21.30;75.70;;;;;;2622376;46;20737;31
2022/05/02 16:05:57;;;;;;;;;;;21.10;76.50;;;;;;2622142;46;20858;31
2022/05/02 16:11:18;;;;;;;;;;;21.00;77.90;;;;;;2603786;54;19935;31
2022/05/02 16:13:54;;;;;;;;;;;20.90;78.40;;;;;;2622278;46;19942;31
2022/05/02 16:16:34;;;;;;;;;;;20.80;78.20;;;;;;2603458;54;19935;31
2022/05/02 16:19:10;;;;;;;;;;;20.80;78.70;;;;;;2603654;54;19935;31
2022/05/02 16:21:49;;;;;;;;;;;20.70;79.10;;;;;;2622168;47;19941;31
2022/05/02 16:24:26;;;;;;;;;;;20.70;79.80;;;;;;2621843;47;20775;31
2022/05/02 16:27:05;;;;;;;;;;;20.60;79.40;;;;;;2604092;54;20684;31
2022/05/02 16:29:40;;;;;;;;;;;20.60;79.80;;;;;;2604442;54;19939;31
2022/05/02 16:32:21;;;;;;;;;;;20.70;79.70;;;;;;2604094;54;19934;31
2022/05/02 16:34:58;;;;;;;;;;;20.70;79.70;;;;;;2623206;46;20748;31
2022/05/02 16:37:52;;;;;;;;;;;20.70;79.10;;;;;;2605415;46;19934;31
2022/05/02 16:40:28;;;;;;;;;;;20.70;78.40;;;;;;2603378;54;19941;31
2022/05/02 16:43:05;;;;;;;;;;;20.70;78.60;;;;;;2622869;46;19934;31